sensor_id;sensor_type;location;lat;lon;timestamp;P1;durP1;ratioP1;P2;durP2;ratioP2
59314;SDS011;46521;50.160;20.802;2024-02-04T00:06:05;12.05;;;7.83;;
59314;SDS011;46521;50.160;20.802;2024-02-04T00:16:07;13.13;;;8.10;;
59314;SDS011;46521;50.160;20.802;2024-02-04T00:26:09;13.73;;;8.93;;
59314;SDS011;46521;50.160;20.802;2024-02-04T00:36:11;15.35;;;9.50;;
59314;SDS011;46521;50.160;20.802;2024-02-04T00:46:12;14.67;;;9.13;;
59314;SDS011;46521;50.160;20.802;2024-02-04T00:56:14;13.48;;;9.50;;
59314;SDS011;46521;50.160;20.802;2024-02-04T01:06:16;11.60;;;7.17;;
59314;SDS011;46521;50.160;20.802;2024-02-04T01:16:17;12.88;;;8.40;;
59314;SDS011;46521;50.160;20.802;2024-02-04T01:26:19;12.58;;;7.30;;
59314;SDS011;46521;50.160;20.802;2024-02-04T01:36:21;10.90;;;6.17;;
59314;SDS011;46521;50.160;20.802;2024-02-04T01:46:22;10.95;;;5.55;;
59314;SDS011;46521;50.160;20.802;2024-02-04T01:56:24;9.80;;;4.60;;
59314;SDS011;46521;50.160;20.802;2024-02-04T02:06:26;13.45;;;7.88;;
59314;SDS011;46521;50.160;20.802;2024-02-04T02:16:27;12.53;;;7.60;;
59314;SDS011;46521;50.160;20.802;2024-02-04T02:36:43;10.00;;;6.20;;
59314;SDS011;46521;50.160;20.802;2024-02-04T02:46:49;9.27;;;4.77;;
59314;SDS011;46521;50.160;20.802;2024-02-04T02:56:51;8.30;;;3.03;;
59314;SDS011;46521;50.160;20.802;2024-02-04T03:06:52;7.08;;;3.58;;
59314;SDS011;46521;50.160;20.802;2024-02-04T03:16:54;5.87;;;2.10;;
59314;SDS011;46521;50.160;20.802;2024-02-04T03:26:56;3.00;;;1.30;;
59314;SDS011;46521;50.160;20.802;2024-02-04T03:37:00;1.90;;;0.95;;
59314;SDS011;46521;50.160;20.802;2024-02-04T03:47:01;4.30;;;1.70;;
59314;SDS011;46521;50.160;20.802;2024-02-04T03:57:04;5.48;;;2.20;;
59314;SDS011;46521;50.160;20.802;2024-02-04T04:07:05;5.80;;;2.03;;
59314;SDS011;46521;50.160;20.802;2024-02-04T04:17:07;3.10;;;1.50;;
59314;SDS011;46521;50.160;20.802;2024-02-04T04:27:08;6.33;;;1.80;;
59314;SDS011;46521;50.160;20.802;2024-02-04T04:37:10;5.28;;;1.70;;
59314;SDS011;46521;50.160;20.802;2024-02-04T04:47:12;3.95;;;1.70;;
59314;SDS011;46521;50.160;20.802;2024-02-04T04:57:13;6.83;;;2.28;;
59314;SDS011;46521;50.160;20.802;2024-02-04T05:07:16;4.50;;;1.80;;
59314;SDS011;46521;50.160;20.802;2024-02-04T05:17:17;5.55;;;1.90;;
59314;SDS011;46521;50.160;20.802;2024-02-04T05:27:18;5.10;;;2.00;;
59314;SDS011;46521;50.160;20.802;2024-02-04T05:37:20;4.45;;;2.00;;
59314;SDS011;46521;50.160;20.802;2024-02-04T05:47:22;3.65;;;1.75;;
59314;SDS011;46521;50.160;20.802;2024-02-04T05:57:24;6.87;;;2.13;;
59314;SDS011;46521;50.160;20.802;2024-02-04T06:07:25;6.03;;;2.00;;
59314;SDS011;46521;50.160;20.802;2024-02-04T06:17:27;4.70;;;1.80;;
59314;SDS011;46521;50.160;20.802;2024-02-04T06:27:28;7.57;;;1.90;;
59314;SDS011;46521;50.160;20.802;2024-02-04T06:37:30;4.98;;;1.63;;
59314;SDS011;46521;50.160;20.802;2024-02-04T06:47:31;4.58;;;1.50;;
59314;SDS011;46521;50.160;20.802;2024-02-04T06:57:33;2.73;;;1.23;;
59314;SDS011;46521;50.160;20.802;2024-02-04T07:07:34;5.05;;;1.50;;
59314;SDS011;46521;50.160;20.802;2024-02-04T07:17:36;5.93;;;1.77;;
59314;SDS011;46521;50.160;20.802;2024-02-04T07:27:37;4.50;;;1.60;;
59314;SDS011;46521;50.160;20.802;2024-02-04T07:37:39;3.83;;;1.70;;
59314;SDS011;46521;50.160;20.802;2024-02-04T07:47:40;5.48;;;2.13;;
59314;SDS011;46521;50.160;20.802;2024-02-04T07:57:42;5.00;;;2.33;;
59314;SDS011;46521;50.160;20.802;2024-02-04T08:07:43;4.80;;;2.10;;
59314;SDS011;46521;50.160;20.802;2024-02-04T08:17:46;5.75;;;2.00;;
59314;SDS011;46521;50.160;20.802;2024-02-04T08:27:47;6.30;;;1.93;;
59314;SDS011;46521;50.160;20.802;2024-02-04T08:37:49;5.73;;;1.65;;
59314;SDS011;46521;50.160;20.802;2024-02-04T08:47:51;4.00;;;1.70;;
59314;SDS011;46521;50.160;20.802;2024-02-04T08:57:52;5.25;;;1.78;;
59314;SDS011;46521;50.160;20.802;2024-02-04T09:07:54;7.83;;;2.10;;
59314;SDS011;46521;50.160;20.802;2024-02-04T09:17:56;4.85;;;1.70;;
59314;SDS011;46521;50.160;20.802;2024-02-04T09:27:57;4.58;;;1.70;;
59314;SDS011;46521;50.160;20.802;2024-02-04T09:37:59;4.78;;;1.48;;
59314;SDS011;46521;50.160;20.802;2024-02-04T09:48:00;6.03;;;1.70;;
59314;SDS011;46521;50.160;20.802;2024-02-04T09:58:03;2.65;;;1.28;;
59314;SDS011;46521;50.160;20.802;2024-02-04T10:08:05;5.13;;;1.98;;
59314;SDS011;46521;50.160;20.802;2024-02-04T10:18:07;5.30;;;1.50;;
59314;SDS011;46521;50.160;20.802;2024-02-04T10:28:09;6.30;;;1.85;;
59314;SDS011;46521;50.160;20.802;2024-02-04T10:38:12;9.70;;;1.90;;
59314;SDS011;46521;50.160;20.802;2024-02-04T10:48:15;4.78;;;1.55;;
59314;SDS011;46521;50.160;20.802;2024-02-04T10:58:20;7.00;;;1.70;;
59314;SDS011;46521;50.160;20.802;2024-02-04T11:08:22;8.00;;;1.90;;
59314;SDS011;46521;50.160;20.802;2024-02-04T11:18:42;5.43;;;1.85;;
59314;SDS011;46521;50.160;20.802;2024-02-04T11:28:53;8.43;;;2.38;;
59314;SDS011;46521;50.160;20.802;2024-02-04T11:38:55;4.30;;;1.88;;
59314;SDS011;46521;50.160;20.802;2024-02-04T11:48:57;3.43;;;1.30;;
59314;SDS011;46521;50.160;20.802;2024-02-04T11:58:58;6.40;;;1.63;;
59314;SDS011;46521;50.160;20.802;2024-02-04T12:09:00;6.50;;;2.05;;
59314;SDS011;46521;50.160;20.802;2024-02-04T12:19:04;6.78;;;1.93;;
59314;SDS011;46521;50.160;20.802;2024-02-04T12:29:06;5.80;;;2.18;;
59314;SDS011;46521;50.160;20.802;2024-02-04T12:39:09;7.63;;;2.85;;
59314;SDS011;46521;50.160;20.802;2024-02-04T12:49:17;10.00;;;2.60;;
59314;SDS011;46521;50.160;20.802;2024-02-04T12:59:29;7.65;;;2.58;;
59314;SDS011;46521;50.160;20.802;2024-02-04T13:09:31;7.50;;;2.20;;
59314;SDS011;46521;50.160;20.802;2024-02-04T13:19:33;7.83;;;2.38;;
59314;SDS011;46521;50.160;20.802;2024-02-04T13:29:37;7.55;;;3.20;;
59314;SDS011;46521;50.160;20.802;2024-02-04T13:39:38;7.85;;;2.80;;
59314;SDS011;46521;50.160;20.802;2024-02-04T13:49:40;8.73;;;3.50;;
59314;SDS011;46521;50.160;20.802;2024-02-04T13:59:41;8.48;;;3.13;;
59314;SDS011;46521;50.160;20.802;2024-02-04T14:09:43;7.38;;;2.83;;
59314;SDS011;46521;50.160;20.802;2024-02-04T14:19:44;8.13;;;3.05;;
59314;SDS011;46521;50.160;20.802;2024-02-04T14:29:49;6.80;;;3.00;;
59314;SDS011;46521;50.160;20.802;2024-02-04T14:39:51;9.40;;;3.88;;
59314;SDS011;46521;50.160;20.802;2024-02-04T14:49:53;9.03;;;3.90;;
59314;SDS011;46521;50.160;20.802;2024-02-04T14:59:55;10.20;;;4.30;;
59314;SDS011;46521;50.160;20.802;2024-02-04T15:09:56;12.60;;;4.80;;
59314;SDS011;46521;50.160;20.802;2024-02-04T15:19:59;11.35;;;4.78;;
59314;SDS011;46521;50.160;20.802;2024-02-04T15:30:00;10.98;;;5.48;;
59314;SDS011;46521;50.160;20.802;2024-02-04T15:40:04;12.00;;;6.10;;
59314;SDS011;46521;50.160;20.802;2024-02-04T15:50:06;12.03;;;5.97;;
59314;SDS011;46521;50.160;20.802;2024-02-04T16:00:09;10.38;;;5.80;;
59314;SDS011;46521;50.160;20.802;2024-02-04T16:10:18;11.63;;;5.90;;
59314;SDS011;46521;50.160;20.802;2024-02-04T16:20:21;10.80;;;5.70;;
59314;SDS011;46521;50.160;20.802;2024-02-04T16:30:23;10.60;;;6.43;;
59314;SDS011;46521;50.160;20.802;2024-02-04T16:40:25;10.33;;;5.80;;
59314;SDS011;46521;50.160;20.802;2024-02-04T16:50:26;11.03;;;6.23;;
59314;SDS011;46521;50.160;20.802;2024-02-04T17:00:29;10.80;;;5.55;;
59314;SDS011;46521;50.160;20.802;2024-02-04T17:10:30;10.20;;;5.05;;
59314;SDS011;46521;50.160;20.802;2024-02-04T17:20:39;11.30;;;5.33;;
59314;SDS011;46521;50.160;20.802;2024-02-04T17:30:48;11.68;;;6.30;;
59314;SDS011;46521;50.160;20.802;2024-02-04T17:40:51;10.00;;;4.48;;
59314;SDS011;46521;50.160;20.802;2024-02-04T17:50:56;9.05;;;4.13;;
59314;SDS011;46521;50.160;20.802;2024-02-04T18:00:58;9.33;;;3.63;;
59314;SDS011;46521;50.160;20.802;2024-02-04T18:10:59;8.98;;;4.43;;
59314;SDS011;46521;50.160;20.802;2024-02-04T18:21:01;7.07;;;4.00;;
59314;SDS011;46521;50.160;20.802;2024-02-04T18:31:02;6.50;;;3.00;;
59314;SDS011;46521;50.160;20.802;2024-02-04T18:41:07;7.45;;;3.00;;
59314;SDS011;46521;50.160;20.802;2024-02-04T18:51:11;11.10;;;3.37;;
59314;SDS011;46521;50.160;20.802;2024-02-04T19:01:13;7.23;;;2.93;;
59314;SDS011;46521;50.160;20.802;2024-02-04T19:11:19;7.45;;;3.23;;
59314;SDS011;46521;50.160;20.802;2024-02-04T19:21:20;9.38;;;3.00;;
59314;SDS011;46521;50.160;20.802;2024-02-04T19:31:22;7.33;;;2.90;;
59314;SDS011;46521;50.160;20.802;2024-02-04T19:41:24;7.17;;;2.80;;
59314;SDS011;46521;50.160;20.802;2024-02-04T19:51:26;7.85;;;3.00;;
59314;SDS011;46521;50.160;20.802;2024-02-04T20:01:29;7.93;;;2.80;;
59314;SDS011;46521;50.160;20.802;2024-02-04T20:11:31;5.78;;;2.25;;
59314;SDS011;46521;50.160;20.802;2024-02-04T20:21:33;7.78;;;2.55;;
59314;SDS011;46521;50.160;20.802;2024-02-04T20:31:34;6.93;;;2.43;;
59314;SDS011;46521;50.160;20.802;2024-02-04T20:41:36;9.15;;;3.15;;
59314;SDS011;46521;50.160;20.802;2024-02-04T20:51:37;8.05;;;3.55;;
59314;SDS011;46521;50.160;20.802;2024-02-04T21:01:39;6.77;;;2.80;;
59314;SDS011;46521;50.160;20.802;2024-02-04T21:11:40;8.88;;;2.88;;
59314;SDS011;46521;50.160;20.802;2024-02-04T21:21:41;10.23;;;3.18;;
59314;SDS011;46521;50.160;20.802;2024-02-04T21:31:43;8.85;;;3.10;;
59314;SDS011;46521;50.160;20.802;2024-02-04T21:41:45;7.38;;;3.15;;
59314;SDS011;46521;50.160;20.802;2024-02-04T21:51:46;7.40;;;3.03;;
59314;SDS011;46521;50.160;20.802;2024-02-04T22:01:48;6.77;;;2.53;;
59314;SDS011;46521;50.160;20.802;2024-02-04T22:11:53;6.23;;;2.77;;
59314;SDS011;46521;50.160;20.802;2024-02-04T22:21:54;5.63;;;3.03;;
59314;SDS011;46521;50.160;20.802;2024-02-04T22:31:56;7.03;;;2.98;;
59314;SDS011;46521;50.160;20.802;2024-02-04T22:41:57;9.03;;;3.35;;
59314;SDS011;46521;50.160;20.802;2024-02-04T22:51:59;8.40;;;3.20;;
59314;SDS011;46521;50.160;20.802;2024-02-04T23:02:00;7.65;;;3.20;;
59314;SDS011;46521;50.160;20.802;2024-02-04T23:12:02;7.03;;;2.95;;
59314;SDS011;46521;50.160;20.802;2024-02-04T23:22:03;7.40;;;2.90;;
59314;SDS011;46521;50.160;20.802;2024-02-04T23:32:06;7.33;;;2.83;;
59314;SDS011;46521;50.160;20.802;2024-02-04T23:42:08;6.77;;;2.90;;
59314;SDS011;46521;50.160;20.802;2024-02-04T23:52:10;6.67;;;2.53;;
